createdAt,value
2022-12-01T00:00:01.610Z,6.68
2022-12-01T00:15:02.217Z,6.65
2022-12-01T00:30:01.906Z,6.63
2022-12-01T00:45:02.567Z,6.72
2022-12-01T01:00:02.203Z,6.52
2022-12-01T01:15:01.875Z,6.76
2022-12-01T01:30:01.567Z,6.49
2022-12-01T01:45:02.180Z,6.41
2022-12-01T02:00:01.779Z,6.41
2022-12-01T02:15:02.435Z,6.63
2022-12-01T02:30:02.053Z,6.67
2022-12-01T02:45:01.720Z,6.53
2022-12-01T03:00:02.328Z,6.4
2022-12-01T03:15:01.997Z,6.5
2022-12-01T03:30:01.648Z,6.41
2022-12-01T03:45:02.299Z,6.5
2022-12-01T04:00:01.929Z,6.27
2022-12-01T04:15:02.574Z,6.41
2022-12-01T04:30:02.281Z,6.2
2022-12-01T04:45:01.960Z,6.09
2022-12-01T05:00:01.593Z,6.36
2022-12-01T05:15:02.245Z,6.19
2022-12-01T05:30:02.439Z,6.3
2022-12-01T05:45:02.055Z,6.32
2022-12-01T06:00:01.725Z,6.13
2022-12-01T06:15:02.365Z,6.19
2022-12-01T06:30:02.042Z,6.12
2022-12-01T06:45:02.002Z,6.13
2022-12-01T07:00:01.765Z,6.05
2022-12-01T07:15:01.673Z,6.07
2022-12-01T07:30:02.381Z,5.98
2022-12-01T07:45:02.078Z,5.94
2022-12-01T08:00:01.738Z,5.97
2022-12-01T08:15:02.373Z,5.99
2022-12-01T08:30:02.117Z,6.18
2022-12-01T08:45:01.869Z,6.1
2022-12-01T09:00:01.617Z,5.99
2022-12-01T09:15:02.293Z,6.08
2022-12-01T09:30:02.021Z,6.12
2022-12-01T09:45:01.668Z,6.13
2022-12-01T10:00:02.329Z,6.28
2022-12-01T10:15:02.007Z,6.28
2022-12-01T10:30:01.687Z,6.49
2022-12-01T10:45:02.382Z,6.38
2022-12-01T11:00:02.124Z,6.61
2022-12-01T11:15:01.796Z,6.53
2022-12-01T11:30:02.484Z,6.7
2022-12-01T11:45:02.130Z,6.41
2022-12-01T12:00:01.840Z,6.4
2022-12-01T12:15:02.477Z,6.69
2022-12-01T12:30:02.143Z,6.48
2022-12-01T12:45:01.796Z,6.45
2022-12-01T13:00:02.425Z,6.77
2022-12-01T13:15:02.081Z,6.51
2022-12-01T13:30:01.786Z,6.61
2022-12-01T13:45:02.443Z,6.52
2022-12-01T14:00:02.085Z,6.44
2022-12-01T14:15:01.713Z,6.34
2022-12-01T14:30:02.450Z,6.37
2022-12-01T14:45:02.235Z,6.45
2022-12-01T15:00:01.920Z,6.16
2022-12-01T15:15:01.724Z,6.04
2022-12-01T15:30:02.372Z,6.04
2022-12-01T15:45:02.383Z,5.9
2022-12-01T16:00:02.400Z,5.9
2022-12-01T16:15:02.075Z,5.85
2022-12-01T16:30:01.854Z,5.65
2022-12-01T16:45:01.699Z,5.65
2022-12-01T17:00:02.391Z,5.54
2022-12-01T17:15:02.109Z,5.46
2022-12-01T17:30:01.937Z,5.34
2022-12-01T17:45:01.684Z,5.36
2022-12-01T18:00:02.380Z,5.24
2022-12-01T18:15:01.992Z,5.16
2022-12-01T18:30:01.652Z,5.16
2022-12-01T18:45:02.268Z,5.21
2022-12-01T19:00:01.912Z,5.02
2022-12-01T19:15:02.568Z,5.12
2022-12-01T19:30:02.271Z,4.93
2022-12-01T19:45:02.039Z,4.91
2022-12-01T20:00:01.755Z,4.95
2022-12-01T20:15:02.396Z,4.85
2022-12-01T20:30:02.161Z,4.77
2022-12-01T20:45:01.828Z,4.78
2022-12-01T21:00:02.470Z,4.64
2022-12-01T21:15:02.071Z,4.67
2022-12-01T21:30:01.765Z,4.71
2022-12-01T21:45:02.391Z,4.63
2022-12-01T22:00:02.021Z,4.61
2022-12-01T22:15:01.697Z,4.58
2022-12-01T22:30:02.411Z,4.53
2022-12-01T22:45:02.048Z,4.49
2022-12-01T23:00:01.811Z,4.5
2022-12-01T23:15:02.427Z,4.45
2022-12-01T23:30:02.171Z,4.42
2022-12-01T23:45:01.785Z,4.4
